KAEX/AEX METAR and TAF weather

Enter ICAO airport designator
Station Type Date Time Source
KAEX METAR 2022/01/29 13:53 UTC NOAA

KAEX 291353Z 00000KT 10SM CLR M01/M04 A3044 RMK AO2 SLP313 T10111044


Station Type Date Time Source
KAEX Decoded METAR 2022/01/29 13:53 UTC NOAA

ALEXANDRIA INTERNATIONAL AIRPORT, LA, United States (KAEX) 31-33N 092-56W 27M
Jan 29, 2022 - 08:53 AM EST / 2022.01.29 1353 UTC
Wind: Calm:0
Visibility: 10 mile(s):0
Sky conditions: clear
Temperature: 30.0 F (-1.1 C)
Dew Point: 24.1 F (-4.4 C)
Relative Humidity: 78%
Pressure (altimeter): 30.44 in. Hg (1030 hPa)
ob: KAEX 291353Z 00000KT 10SM CLR M01/M04 A3044 RMK AO2 SLP313 T10111044
cycle: 14

Station Type Date Time Source
KAEX TAF 2022/01/29 12:24 UTC NOAA

TAF KAEX 291121Z 2912/3012 VRB05KT P6SM SKC

Example: see airport list